This is the latest recevied weather packets stored in our database for station/object CE4ERM-13. If no packets are shown the sender has not sent any weather packets the latest 1 day(s).
| Time | Temp. | Humidity | Pressure | Rain* | Wind** | Luminosity | Snow |
|---|---|---|---|---|---|---|---|
| 1777901857 | 23.33° C | 26% | 1018.4 hPa | - | - | - | - |
| 1777901257 | 23.33° C | 26% | 1018.5 hPa | - | - | - | - |
| 1777900657 | 22.78° C | 28% | 1018.9 hPa | - | - | - | - |
| 1777900455 | 21.67° C | 30% | 1019.3 hPa | - | - | - | - |
| 1777900057 | 21.67° C | 30% | 1019.3 hPa | - | - | - | - |
| 1777898854 | 21.67° C | 29% | 1017.9 hPa | - | - | - | - |
| 1777898255 | 21.67° C | 30% | 1018 hPa | - | - | - | - |
| 1777897849 | 21.11° C | 32% | 1020 hPa | - | - | - | - |
| 1777897654 | 21.11° C | 32% | 1020 hPa | - | - | - | - |
| 1777897226 | 17.22° C | 43% | 1019.5 hPa | - | - | - | - |
| 1777897054 | 21.11° C | 33% | 1018.2 hPa | - | - | - | - |
| 1777896454 | 20.56° C | 33% | 1017.5 hPa | - | - | - | - |
| 1777896026 | 17.22° C | 44% | 1019.4 hPa | - | - | - | - |
| 1777895854 | 20.56° C | 32% | 1018.3 hPa | - | - | - | - |
| 1777895253 | 20.56° C | 32% | 1018.4 hPa | - | - | - | - |
| 1777894653 | 20° C | 33% | 1018.4 hPa | - | - | - | - |
| 1777894224 | 17.78° C | 43% | 1019.4 hPa | - | - | - | - |
| 1777894054 | 20° C | 33% | 1018 hPa | - | - | - | - |
| 1777893453 | 20° C | 34% | 1018 hPa | - | - | - | - |
| 1777892852 | 20° C | 34% | 1017.8 hPa | - | - | - | - |
| 1777892424 | 17.22° C | 40% | 1018.9 hPa | - | - | - | - |
| 1777892251 | 20.56° C | 34% | 1018.3 hPa | - | - | - | - |
| 1777891651 | 19.44° C | 35% | 1018.3 hPa | - | - | - | - |
| 1777891051 | 19.44° C | 36% | 1017.3 hPa | - | - | - | - |
| 1777890451 | 18.89° C | 37% | 1019.1 hPa | - | - | - | - |
* Rain since midnight (hover to see other rain measurements)
** Current wind speed in m/s (hover to see current wind gust speed)